createdAt,value
2019-05-10T00:00:33.084Z,81.64
2019-05-10T00:02:53.837Z,82.73
2019-05-10T00:05:14.096Z,81.87
2019-05-10T00:07:34.467Z,82.19
2019-05-10T00:09:36.683Z,82.44
2019-05-10T00:12:01.438Z,82.54
2019-05-10T00:14:31.540Z,83.10
2019-05-10T00:16:33.755Z,82.11
2019-05-10T00:18:35.800Z,81.29
2019-05-10T00:20:38.836Z,80.28
2019-05-10T00:22:41.479Z,80.41
2019-05-10T00:24:43.695Z,79.90
2019-05-10T00:26:45.761Z,80.06
2019-05-10T00:28:49.110Z,79.85
2019-05-10T00:30:50.900Z,79.72
2019-05-10T00:32:52.936Z,80.54
2019-05-10T00:34:56.319Z,79.39
2019-05-10T00:36:58.759Z,78.60
2019-05-10T00:39:00.356Z,79.26
2019-05-10T00:41:03.934Z,79.20
2019-05-10T00:43:06.053Z,79.67
2019-05-10T00:45:08.311Z,79.16
2019-05-10T00:47:10.733Z,77.64
2019-05-10T00:49:12.454Z,78.23
2019-05-10T00:51:14.508Z,79.52
2019-05-10T00:53:16.714Z,77.97
2019-05-10T00:55:19.630Z,77.94
2019-05-10T00:57:22.022Z,78.21
2019-05-10T00:59:24.231Z,77.74
2019-05-10T01:01:26.226Z,77.46
2019-05-10T01:03:28.265Z,78.54
2019-05-10T01:05:30.331Z,78.91
2019-05-10T01:07:32.457Z,78.97
2019-05-10T01:09:34.584Z,78.73
2019-05-10T01:11:37.446Z,77.65
2019-05-10T01:13:39.439Z,78.84
2019-05-10T01:15:41.621Z,78.24
2019-05-10T01:17:43.718Z,78.90
2019-05-10T01:19:45.758Z,78.61
2019-05-10T01:21:47.796Z,78.40
2019-05-10T01:23:50.111Z,78.80
2019-05-10T01:25:52.139Z,79.00
2019-05-10T01:27:54.232Z,78.74
2019-05-10T01:29:56.596Z,79.22
2019-05-10T01:31:58.524Z,79.22
2019-05-10T01:34:00.477Z,79.04
2019-05-10T01:36:02.793Z,78.76
2019-05-10T01:38:04.810Z,78.43
2019-05-10T01:40:06.939Z,78.34
2019-05-10T01:42:09.218Z,78.96
2019-05-10T01:44:11.223Z,78.63
2019-05-10T01:46:13.243Z,77.91
2019-05-10T01:48:15.571Z,77.75
2019-05-10T01:50:17.614Z,77.76
2019-05-10T01:52:19.904Z,78.26
2019-05-10T01:54:22.577Z,77.60
2019-05-10T01:56:24.744Z,77.57
2019-05-10T01:58:27.047Z,78.26
2019-05-10T02:00:29.434Z,77.56
2019-05-10T02:02:31.419Z,77.98
2019-05-10T02:04:33.430Z,77.31
2019-05-10T02:06:35.661Z,77.22
2019-05-10T02:08:37.684Z,77.18
2019-05-10T02:10:39.874Z,77.73
2019-05-10T02:12:42.157Z,77.26
2019-05-10T02:14:44.179Z,76.65
2019-05-10T02:16:46.208Z,77.12
2019-05-10T02:18:48.547Z,76.63
2019-05-10T02:20:50.311Z,76.06
2019-05-10T02:22:52.412Z,76.27
2019-05-10T02:24:56.163Z,75.84
2019-05-10T02:26:58.149Z,76.72
2019-05-10T02:29:00.231Z,75.39
2019-05-10T02:31:02.688Z,75.80
2019-05-10T02:33:04.469Z,75.08
2019-05-10T02:35:07.621Z,75.70
2019-05-10T02:37:10.091Z,75.80
2019-05-10T02:39:12.196Z,75.71
2019-05-10T02:41:14.516Z,74.72
2019-05-10T02:43:16.882Z,75.83
2019-05-10T02:45:19.106Z,75.80
2019-05-10T02:47:21.042Z,75.61
2019-05-10T02:49:23.259Z,75.54
2019-05-10T02:51:25.456Z,75.12
2019-05-10T02:53:27.798Z,75.55
2019-05-10T02:55:30.574Z,75.63
2019-05-10T02:57:35.687Z,75.81
2019-05-10T02:59:37.978Z,75.73
2019-05-10T03:01:44.448Z,76.04
2019-05-10T03:03:48.991Z,75.25
2019-05-10T03:05:52.838Z,75.80
2019-05-10T03:07:58.011Z,75.67
2019-05-10T03:10:02.089Z,75.41
2019-05-10T03:12:38.205Z,74.61
2019-05-10T03:14:40.648Z,74.31
2019-05-10T03:16:44.085Z,73.79
2019-05-10T03:18:48.885Z,74.48
2019-05-10T03:20:54.830Z,74.74
2019-05-10T03:22:57.415Z,76.16
2019-05-10T03:24:59.412Z,77.12
2019-05-10T03:27:01.716Z,77.37
2019-05-10T03:29:05.601Z,77.65
2019-05-10T03:31:07.613Z,77.52
2019-05-10T03:33:09.849Z,77.46
2019-05-10T03:35:12.186Z,77.25
2019-05-10T03:37:14.669Z,77.11
2019-05-10T03:39:16.621Z,77.11
2019-05-10T03:41:18.838Z,77.19
2019-05-10T03:43:20.867Z,76.92
2019-05-10T03:45:25.505Z,76.52
2019-05-10T03:47:27.532Z,77.04
2019-05-10T03:49:29.600Z,76.65
2019-05-10T03:51:31.740Z,76.76
2019-05-10T03:53:33.803Z,76.81
2019-05-10T03:55:35.866Z,76.43
2019-05-10T03:57:38.589Z,76.39
2019-05-10T03:59:41.541Z,75.83
2019-05-10T04:01:43.871Z,75.99
2019-05-10T04:03:46.129Z,76.10
2019-05-10T04:05:48.176Z,75.10
2019-05-10T04:07:50.292Z,74.63
2019-05-10T04:09:52.805Z,72.48
2019-05-10T04:11:54.835Z,71.89
2019-05-10T04:13:56.817Z,72.63
2019-05-10T04:15:58.866Z,72.20
2019-05-10T04:18:01.275Z,72.68
2019-05-10T04:20:04.469Z,73.02
2019-05-10T04:22:06.487Z,73.62
2019-05-10T04:24:09.625Z,74.24
2019-05-10T04:26:11.666Z,74.09
2019-05-10T04:28:13.850Z,74.71
2019-05-10T04:30:16.881Z,74.68
2019-05-10T04:32:18.878Z,74.93
2019-05-10T04:34:21.243Z,75.40
2019-05-10T04:36:22.885Z,75.86
2019-05-10T04:38:25.101Z,75.52
2019-05-10T04:40:27.455Z,75.92
2019-05-10T04:42:30.846Z,75.72
2019-05-10T04:44:32.912Z,75.94
2019-05-10T04:46:35.348Z,76.02
2019-05-10T04:48:37.282Z,75.88
2019-05-10T04:50:39.354Z,75.68
2019-05-10T04:52:41.523Z,74.81
2019-05-10T04:54:43.721Z,74.14
2019-05-10T04:56:45.758Z,73.33
2019-05-10T04:58:48.239Z,73.16
2019-05-10T05:00:52.792Z,73.10
2019-05-10T05:02:54.842Z,72.95
2019-05-10T05:04:57.583Z,73.36
2019-05-10T05:06:59.694Z,73.83
2019-05-10T05:09:02.198Z,74.55
2019-05-10T05:11:05.729Z,74.90
2019-05-10T05:13:07.746Z,74.39
2019-05-10T05:15:10.342Z,73.07
2019-05-10T05:17:12.829Z,73.70
2019-05-10T05:19:14.489Z,74.22
2019-05-10T05:21:16.544Z,74.42
2019-05-10T05:23:19.043Z,74.59
2019-05-10T05:25:22.127Z,74.40
2019-05-10T05:27:24.519Z,74.98
2019-05-10T05:29:27.026Z,73.92
2019-05-10T05:31:28.605Z,74.30
2019-05-10T05:33:30.659Z,74.00
2019-05-10T05:35:33.452Z,73.74
2019-05-10T05:37:35.619Z,73.71
2019-05-10T05:39:37.665Z,72.17
2019-05-10T05:41:49.062Z,72.81
2019-05-10T05:43:46.312Z,72.81
2019-05-10T05:45:47.909Z,72.21
2019-05-10T05:47:50.007Z,72.54
2019-05-10T05:49:52.661Z,72.99
2019-05-10T05:51:54.661Z,72.55
2019-05-10T05:55:48.697Z,72.42
2019-05-10T05:57:50.254Z,72.83
2019-05-10T05:59:57.351Z,73.50
2019-05-10T06:02:00.913Z,72.37
2019-05-10T06:04:06.305Z,71.17
2019-05-10T06:06:15.335Z,70.42
2019-05-10T06:08:23.039Z,70.32
2019-05-10T06:10:19.587Z,71.15
2019-05-10T06:12:20.672Z,70.81
2019-05-10T06:14:22.735Z,70.32
2019-05-10T06:16:25.099Z,70.02
2019-05-10T06:18:27.272Z,70.05
2019-05-10T06:20:29.513Z,69.71
2019-05-10T06:22:31.698Z,70.65
2019-05-10T06:24:34.425Z,68.94
2019-05-10T06:26:36.931Z,69.27
2019-05-10T06:30:43.365Z,68.36
2019-05-10T06:32:45.872Z,66.86
2019-05-10T06:34:47.597Z,66.62
2019-05-10T06:36:49.890Z,65.47
2019-05-10T06:38:52.176Z,65.60
2019-05-10T06:40:54.209Z,64.45
2019-05-10T06:42:56.196Z,63.76
2019-05-10T06:45:05.062Z,63.92
2019-05-10T06:47:08.267Z,63.11
2019-05-10T06:49:10.907Z,64.36
2019-05-10T06:51:12.737Z,64.40
2019-05-10T06:53:15.084Z,64.08
2019-05-10T06:55:17.266Z,63.26
2019-05-10T06:57:19.537Z,61.22
2019-05-10T06:59:24.769Z,61.30
2019-05-10T07:01:25.788Z,60.04
2019-05-10T07:03:27.972Z,60.70
2019-05-10T07:05:30.050Z,61.33
2019-05-10T07:07:43.383Z,61.39
2019-05-10T07:10:01.069Z,61.02
2019-05-10T07:11:40.344Z,61.60
2019-05-10T07:13:47.205Z,61.71
2019-05-10T07:15:46.801Z,62.67
2019-05-10T07:17:48.845Z,62.15
2019-05-10T07:19:54.863Z,62.98
2019-05-10T07:21:54.929Z,63.56
2019-05-10T07:23:57.147Z,62.28
2019-05-10T07:25:59.210Z,60.19
2019-05-10T07:28:01.528Z,60.60
2019-05-10T07:30:03.960Z,59.95
2019-05-10T07:32:05.866Z,60.11
2019-05-10T07:34:09.863Z,60.00
2019-05-10T07:36:15.249Z,60.32
2019-05-10T07:38:16.102Z,61.04
2019-05-10T07:40:19.006Z,60.89
2019-05-10T07:42:21.030Z,60.86
2019-05-10T07:44:23.082Z,60.23
2019-05-10T07:46:25.305Z,61.86
2019-05-10T07:48:27.314Z,61.48
2019-05-10T07:50:29.427Z,61.83
2019-05-10T07:52:36.766Z,60.79
2019-05-10T07:54:37.705Z,61.47
2019-05-10T07:56:45.676Z,61.26
2019-05-10T07:58:44.932Z,60.68
2019-05-10T08:00:47.134Z,59.69
2019-05-10T08:02:59.246Z,60.27
2019-05-10T08:04:54.607Z,61.33
2019-05-10T08:06:59.689Z,61.60
2019-05-10T08:09:06.277Z,61.85
2019-05-10T08:11:05.892Z,61.88
2019-05-10T08:13:10.219Z,61.40
2019-05-10T08:15:12.170Z,59.91
2019-05-10T08:17:14.375Z,59.16
2019-05-10T08:19:16.426Z,58.30
2019-05-10T08:21:22.438Z,60.87
2019-05-10T08:23:26.579Z,59.18
2019-05-10T08:25:28.974Z,57.44
2019-05-10T08:27:32.468Z,57.44
2019-05-10T08:29:34.814Z,56.73
2019-05-10T08:31:40.385Z,58.21
2019-05-10T08:33:46.279Z,59.14
2019-05-10T08:35:46.506Z,58.16
2019-05-10T08:37:49.283Z,58.32
2019-05-10T08:39:55.833Z,57.86
2019-05-10T08:42:04.060Z,58.08
2019-05-10T08:44:02.405Z,57.31
2019-05-10T08:46:04.033Z,56.75
2019-05-10T08:48:07.163Z,56.43
2019-05-10T08:50:22.324Z,55.54
2019-05-10T08:52:13.809Z,56.12
2019-05-10T08:54:16.152Z,56.64
2019-05-10T08:56:23.413Z,55.86
2019-05-10T08:58:31.353Z,56.90
2019-05-10T09:00:41.609Z,55.89
2019-05-10T09:02:34.540Z,56.03
2019-05-10T09:04:42.721Z,55.19
2019-05-10T09:06:42.027Z,56.04
2019-05-10T09:08:44.201Z,53.35
2019-05-10T09:10:46.207Z,52.95
2019-05-10T09:12:54.391Z,50.35
2019-05-10T09:14:57.350Z,52.27
2019-05-10T09:17:03.457Z,47.90
2019-05-10T09:19:02.564Z,49.43
2019-05-10T09:21:08.756Z,49.17
2019-05-10T09:23:15.257Z,47.72
2019-05-10T09:25:14.168Z,47.94
2019-05-10T09:27:16.240Z,49.54
2019-05-10T09:29:18.259Z,47.32
2019-05-10T09:31:24.846Z,49.31
2019-05-10T09:33:24.580Z,48.68
2019-05-10T09:35:26.690Z,48.00
2019-05-10T09:37:29.001Z,48.50
2019-05-10T09:39:32.150Z,47.12
2019-05-10T09:41:38.195Z,48.80
2019-05-10T09:43:40.491Z,50.71
2019-05-10T09:45:42.563Z,47.59
2019-05-10T09:47:44.874Z,50.14
2019-05-10T09:49:54.050Z,47.22
2019-05-10T09:51:52.511Z,48.31
2019-05-10T09:53:57.628Z,45.95
2019-05-10T09:56:03.139Z,49.02
2019-05-10T09:58:04.493Z,46.19
2019-05-10T10:00:08.429Z,46.27
2019-05-10T10:02:15.648Z,48.30
2019-05-10T10:04:17.881Z,47.60
2019-05-10T10:06:19.552Z,46.85
2019-05-10T10:08:22.969Z,46.94
2019-05-10T10:10:30.101Z,48.13
2019-05-10T10:12:29.088Z,48.48
2019-05-10T10:14:37.803Z,48.35
2019-05-10T10:16:35.515Z,47.63
2019-05-10T10:18:37.814Z,46.82
2019-05-10T10:20:43.867Z,47.13
2019-05-10T10:22:52.628Z,46.65
2019-05-10T10:24:48.961Z,47.32
2019-05-10T10:26:53.923Z,46.92
2019-05-10T10:28:59.547Z,45.98
2019-05-10T10:31:05.112Z,46.97
2019-05-10T10:33:05.649Z,47.27
2019-05-10T10:35:13.374Z,45.87
2019-05-10T10:37:14.601Z,45.81
2019-05-10T10:39:22.890Z,45.24
2019-05-10T10:41:25.867Z,45.97
2019-05-10T10:43:27.210Z,46.06
2019-05-10T10:45:29.781Z,47.96
2019-05-10T10:47:32.351Z,46.75
2019-05-10T10:49:34.325Z,47.23
2019-05-10T10:51:37.903Z,47.04
2019-05-10T10:53:40.480Z,47.12
2019-05-10T10:55:46.074Z,46.97
2019-05-10T10:57:48.281Z,48.14
2019-05-10T10:59:50.347Z,49.53
2019-05-10T11:02:25.322Z,46.85
2019-05-10T11:03:56.538Z,47.12
2019-05-10T11:05:58.632Z,48.09
2019-05-10T11:08:01.174Z,47.26
2019-05-10T11:10:14.931Z,47.17
2019-05-10T11:12:08.005Z,48.29
2019-05-10T11:14:11.089Z,48.59
2019-05-10T11:16:15.639Z,48.09
2019-05-10T11:18:17.516Z,47.35
2019-05-10T11:20:21.601Z,48.02
2019-05-10T11:22:27.200Z,45.90
2019-05-10T11:24:28.083Z,45.50
2019-05-10T11:26:32.901Z,46.32
2019-05-10T11:28:44.186Z,47.83
2019-05-10T11:30:38.643Z,47.83
2019-05-10T11:32:41.880Z,45.70
2019-05-10T11:34:44.477Z,45.66
2019-05-10T11:36:48.346Z,47.26
2019-05-10T11:38:56.917Z,47.65
2019-05-10T11:40:54.854Z,47.70
2019-05-10T11:42:57.017Z,47.45
2019-05-10T11:45:00.766Z,46.94
2019-05-10T11:47:03.143Z,45.68
2019-05-10T11:49:05.579Z,48.22
2019-05-10T11:51:12.343Z,47.36
2019-05-10T11:53:13.308Z,47.27
2019-05-10T11:55:15.385Z,47.79
2019-05-10T11:57:17.705Z,49.00
2019-05-10T11:59:21.836Z,49.29
2019-05-10T12:01:24.077Z,48.67
2019-05-10T12:03:27.397Z,48.29
2019-05-10T12:05:31.973Z,48.51
2019-05-10T12:07:42.440Z,48.46
2019-05-10T12:09:38.084Z,46.61
2019-05-10T12:11:51.245Z,45.83
2019-05-10T12:13:44.109Z,46.86
2019-05-10T12:15:46.093Z,45.88
2019-05-10T12:19:56.356Z,46.46
2019-05-10T12:22:07.789Z,47.63
2019-05-10T12:24:26.314Z,47.41
2019-05-10T12:26:05.336Z,46.49
2019-05-10T12:28:24.435Z,45.94
2019-05-10T12:30:23.971Z,46.20
2019-05-10T12:32:26.958Z,46.87
2019-05-10T12:34:31.139Z,47.21
2019-05-10T12:36:33.952Z,47.82
2019-05-10T12:38:36.573Z,47.60
2019-05-10T12:40:41.746Z,47.80
2019-05-10T12:42:46.917Z,48.13
2019-05-10T12:44:48.221Z,47.75
2019-05-10T12:46:54.073Z,48.01
2019-05-10T12:48:55.123Z,49.35
2019-05-10T12:51:02.011Z,48.18
2019-05-10T12:53:12.654Z,47.36
2019-05-10T12:55:05.502Z,47.64
2019-05-10T12:57:07.148Z,47.19
2019-05-10T12:59:09.099Z,46.40
2019-05-10T13:01:12.508Z,45.88
2019-05-10T13:03:19.009Z,45.14
2019-05-10T13:05:19.640Z,46.42
2019-05-10T13:07:23.818Z,46.71
2019-05-10T13:09:38.043Z,46.35
2019-05-10T13:11:29.783Z,47.17
2019-05-10T13:13:31.956Z,48.38
2019-05-10T13:15:34.013Z,47.81
2019-05-10T13:17:35.985Z,48.11
2019-05-10T13:19:38.235Z,48.71
2019-05-10T13:21:40.218Z,49.55
2019-05-10T13:23:42.230Z,46.69
2019-05-10T13:25:44.437Z,47.98
2019-05-10T13:27:46.480Z,47.79
2019-05-10T13:29:53.325Z,48.51
2019-05-10T13:31:52.759Z,48.70
2019-05-10T13:33:56.681Z,47.06
2019-05-10T13:35:59.080Z,46.81
2019-05-10T13:38:03.779Z,45.94
2019-05-10T13:40:07.965Z,46.48
2019-05-10T13:42:09.887Z,46.11
2019-05-10T13:44:12.507Z,46.50
2019-05-10T13:46:14.566Z,48.79
2019-05-10T13:48:16.732Z,48.86
2019-05-10T13:50:19.110Z,48.40
2019-05-10T13:52:20.951Z,47.84
2019-05-10T13:54:23.040Z,48.30
2019-05-10T13:56:25.497Z,48.30
2019-05-10T13:58:30.137Z,47.52
2019-05-10T14:00:36.086Z,47.86
2019-05-10T14:02:38.925Z,48.30
2019-05-10T14:04:40.930Z,47.28
2019-05-10T14:06:42.994Z,47.15
2019-05-10T14:08:48.413Z,47.23
2019-05-10T14:10:49.936Z,46.32
2019-05-10T14:12:55.995Z,46.35
2019-05-10T14:15:02.409Z,47.50
2019-05-10T14:17:00.308Z,47.29
2019-05-10T14:19:02.299Z,47.34
2019-05-10T14:21:04.556Z,47.84
2019-05-10T14:23:06.751Z,47.73
2019-05-10T14:25:10.123Z,48.26
2019-05-10T14:27:12.706Z,48.15
2019-05-10T14:29:14.741Z,47.61
2019-05-10T14:31:16.739Z,48.25
2019-05-10T14:33:20.422Z,48.49
2019-05-10T14:35:22.835Z,48.31
2019-05-10T14:37:25.883Z,48.05
2019-05-10T14:39:27.891Z,48.73
2019-05-10T14:41:30.182Z,48.50
2019-05-10T14:43:32.161Z,48.98
2019-05-10T14:45:34.436Z,49.27
2019-05-10T14:47:46.741Z,49.28
2019-05-10T14:49:46.455Z,49.05
2019-05-10T14:51:58.455Z,49.63
2019-05-10T14:53:48.888Z,49.83
2019-05-10T14:55:50.885Z,48.98
2019-05-10T14:57:53.262Z,48.15
2019-05-10T14:59:55.346Z,48.76
2019-05-10T15:01:57.524Z,48.21
2019-05-10T15:03:59.846Z,48.21
2019-05-10T15:06:02.079Z,48.02
2019-05-10T15:08:04.330Z,49.15
2019-05-10T15:10:06.983Z,49.02
2019-05-10T15:12:10.312Z,48.12
2019-05-10T15:14:14.390Z,48.74
2019-05-10T15:16:26.027Z,48.56
2019-05-10T15:18:20.674Z,49.49
2019-05-10T15:20:22.728Z,49.98
2019-05-10T15:22:25.689Z,51.18
2019-05-10T15:24:27.737Z,51.01
2019-05-10T15:26:29.872Z,50.05
2019-05-10T15:28:34.520Z,49.86
2019-05-10T15:30:39.387Z,49.71
2019-05-10T15:32:40.404Z,50.35
2019-05-10T15:35:03.864Z,49.95
2019-05-10T15:36:48.457Z,50.39
2019-05-10T15:38:52.300Z,50.80
2019-05-10T15:40:54.800Z,51.00
2019-05-10T15:42:56.837Z,50.59
2019-05-10T15:45:05.241Z,50.16
2019-05-10T15:47:03.316Z,50.04
2019-05-10T15:49:06.722Z,50.76
2019-05-10T15:51:11.102Z,49.93
2019-05-10T15:53:12.892Z,49.41
2019-05-10T15:55:16.479Z,49.57
2019-05-10T15:57:21.669Z,49.57
2019-05-10T15:59:24.584Z,49.78
2019-05-10T16:01:28.982Z,49.99
2019-05-10T16:03:30.509Z,50.91
2019-05-10T16:05:43.127Z,50.77
2019-05-10T16:07:37.101Z,51.20
2019-05-10T16:09:39.525Z,50.58
2019-05-10T16:11:41.697Z,50.42
2019-05-10T16:13:43.710Z,51.13
2019-05-10T16:15:45.699Z,50.45
2019-05-10T16:17:47.928Z,50.90
2019-05-10T16:19:50.954Z,50.06
2019-05-10T16:21:58.036Z,50.30
2019-05-10T16:23:59.178Z,50.28
2019-05-10T16:26:01.621Z,51.61
2019-05-10T16:28:03.634Z,51.57
2019-05-10T16:30:11.874Z,51.76
2019-05-10T16:32:11.641Z,50.65
2019-05-10T16:34:13.647Z,51.53
2019-05-10T16:36:16.089Z,51.13
2019-05-10T16:38:18.085Z,51.35
2019-05-10T16:40:20.289Z,51.59
2019-05-10T16:42:27.784Z,51.28
2019-05-10T16:44:27.481Z,52.06
2019-05-10T16:46:29.611Z,51.73
2019-05-10T16:48:31.914Z,51.99
2019-05-10T16:50:33.985Z,51.10
2019-05-10T16:52:37.104Z,51.41
2019-05-10T16:54:39.329Z,51.85
2019-05-10T16:56:41.980Z,51.25
2019-05-10T16:58:47.515Z,52.02
2019-05-10T17:00:49.249Z,52.84
2019-05-10T17:02:51.224Z,53.39
2019-05-10T17:04:53.424Z,52.92
2019-05-10T17:06:58.467Z,52.85
2019-05-10T17:08:59.627Z,53.24
2019-05-10T17:11:09.494Z,53.68
2019-05-10T17:13:06.687Z,53.68
2019-05-10T17:15:08.872Z,53.64
2019-05-10T17:17:10.868Z,54.86
2019-05-10T17:19:13.288Z,53.70
2019-05-10T17:21:15.632Z,54.01
2019-05-10T17:23:17.836Z,54.21
2019-05-10T17:25:22.623Z,54.29
2019-05-10T17:27:24.163Z,54.76
2019-05-10T17:29:26.588Z,54.99
2019-05-10T17:31:28.835Z,56.22
2019-05-10T17:33:30.830Z,56.22
2019-05-10T17:35:36.891Z,55.53
2019-05-10T17:37:37.539Z,55.65
2019-05-10T17:39:39.677Z,55.32
2019-05-10T17:41:41.853Z,55.38
2019-05-10T17:43:44.063Z,55.29
2019-05-10T17:45:46.334Z,55.29
2019-05-10T17:47:48.295Z,55.42
2019-05-10T17:49:52.330Z,55.16
2019-05-10T17:51:54.341Z,53.82
2019-05-10T17:54:01.529Z,54.15
2019-05-10T17:56:02.917Z,54.04
2019-05-10T17:58:04.484Z,53.41
2019-05-10T18:00:07.457Z,53.59
2019-05-10T18:02:09.637Z,53.41
2019-05-10T18:04:11.632Z,54.13
2019-05-10T18:06:23.613Z,54.84
2019-05-10T18:08:18.934Z,55.85
2019-05-10T18:10:20.996Z,55.58
2019-05-10T18:12:27.007Z,55.11
2019-05-10T18:14:29.524Z,55.56
2019-05-10T18:16:31.568Z,55.64
2019-05-10T18:18:35.162Z,56.21
2019-05-10T18:20:42.086Z,56.24
2019-05-10T18:22:45.033Z,56.55
2019-05-10T18:24:45.953Z,56.51
2019-05-10T18:26:48.367Z,56.69
2019-05-10T18:28:50.379Z,56.93
2019-05-10T18:30:52.704Z,58.06
2019-05-10T18:32:54.966Z,58.18
2019-05-10T18:34:57.065Z,58.57
2019-05-10T18:36:59.175Z,58.70
2019-05-10T18:39:01.460Z,58.13
2019-05-10T18:41:05.454Z,58.52
2019-05-10T18:43:07.939Z,58.74
2019-05-10T18:45:11.836Z,59.16
2019-05-10T18:47:14.012Z,58.87
2019-05-10T18:49:16.047Z,58.51
2019-05-10T18:51:24.499Z,57.15
2019-05-10T18:53:22.324Z,58.21
2019-05-10T18:55:24.373Z,57.79
2019-05-10T18:57:26.872Z,58.53
2019-05-10T18:59:30.547Z,58.34
2019-05-10T19:01:38.533Z,59.37
2019-05-10T19:03:36.834Z,58.55
2019-05-10T19:05:39.041Z,59.15
2019-05-10T19:07:41.289Z,59.40
2019-05-10T19:09:43.447Z,60.50
2019-05-10T19:11:45.729Z,60.29
2019-05-10T19:13:53.766Z,60.19
2019-05-10T19:15:57.812Z,60.69
2019-05-10T19:17:57.002Z,61.28
2019-05-10T19:19:59.799Z,60.63
2019-05-10T19:22:02.991Z,61.30
2019-05-10T19:24:05.747Z,60.44
2019-05-10T19:26:08.049Z,62.01
2019-05-10T19:28:10.286Z,61.05
2019-05-10T19:30:12.568Z,60.95
2019-05-10T19:32:18.044Z,61.06
2019-05-10T19:34:18.857Z,60.96
2019-05-10T19:36:20.866Z,61.00
2019-05-10T19:38:23.156Z,60.79
2019-05-10T19:40:25.299Z,60.48
2019-05-10T19:42:31.195Z,59.92
2019-05-10T19:44:34.543Z,60.48
2019-05-10T19:46:39.370Z,60.61
2019-05-10T19:48:40.846Z,60.89
2019-05-10T19:50:43.106Z,60.68
2019-05-10T19:52:45.376Z,60.64
2019-05-10T19:54:47.506Z,60.43
2019-05-10T19:56:49.809Z,60.30
2019-05-10T19:58:51.825Z,60.71
2019-05-10T20:00:53.887Z,60.63
2019-05-10T20:02:56.098Z,60.52
2019-05-10T20:04:58.376Z,61.13
2019-05-10T20:07:00.393Z,59.81
2019-05-10T20:09:05.403Z,59.99
2019-05-10T20:11:07.484Z,59.48
2019-05-10T20:13:09.827Z,59.31
2019-05-10T20:15:12.366Z,59.88
2019-05-10T20:17:14.492Z,58.92
2019-05-10T20:19:16.517Z,59.26
2019-05-10T20:21:18.662Z,59.25
2019-05-10T20:23:20.906Z,60.62
2019-05-10T20:25:23.002Z,59.74
2019-05-10T20:27:25.257Z,59.83
2019-05-10T20:29:27.493Z,60.30
2019-05-10T20:31:30.720Z,60.56
2019-05-10T20:33:36.260Z,59.66
2019-05-10T20:35:39.342Z,60.98
2019-05-10T20:37:41.519Z,61.15
2019-05-10T20:39:43.768Z,60.30
2019-05-10T20:41:45.805Z,60.50
2019-05-10T20:43:47.820Z,60.57
2019-05-10T20:45:50.059Z,60.32
2019-05-10T20:47:52.102Z,60.80
2019-05-10T20:49:54.298Z,61.03
2019-05-10T20:51:56.833Z,61.20
2019-05-10T20:53:59.050Z,61.46
2019-05-10T20:56:04.212Z,61.68
2019-05-10T20:58:06.893Z,61.93
2019-05-10T21:00:09.268Z,61.34
2019-05-10T21:02:11.879Z,62.27
2019-05-10T21:04:14.258Z,61.58
2019-05-10T21:06:16.348Z,62.04
2019-05-10T21:08:19.584Z,62.13
2019-05-10T21:10:22.079Z,62.75
2019-05-10T21:12:23.832Z,62.14
2019-05-10T21:14:28.624Z,62.28
2019-05-10T21:16:30.818Z,62.65
2019-05-10T21:18:32.723Z,62.62
2019-05-10T21:20:34.694Z,63.30
2019-05-10T21:22:36.999Z,63.16
2019-05-10T21:24:39.112Z,63.29
2019-05-10T21:26:41.116Z,63.00
2019-05-10T21:28:43.732Z,63.00
2019-05-10T21:30:45.768Z,62.99
2019-05-10T21:32:47.847Z,62.97
2019-05-10T21:34:50.193Z,63.34
2019-05-10T21:36:52.238Z,63.82
2019-05-10T21:38:54.333Z,63.95
2019-05-10T21:40:56.720Z,63.89
2019-05-10T21:42:58.945Z,64.08
2019-05-10T21:45:00.955Z,64.94
2019-05-10T21:47:02.978Z,64.37
2019-05-10T21:49:05.017Z,64.49
2019-05-10T21:51:07.293Z,65.10
2019-05-10T21:53:11.418Z,64.35
2019-05-10T21:55:13.511Z,64.30
2019-05-10T21:57:16.966Z,64.55
2019-05-10T21:59:19.057Z,64.65
2019-05-10T22:01:21.424Z,64.30
2019-05-10T22:03:23.092Z,64.66
2019-05-10T22:05:25.420Z,64.59
2019-05-10T22:07:27.402Z,64.10
2019-05-10T22:09:29.887Z,64.01
2019-05-10T22:11:32.108Z,63.88
2019-05-10T22:13:34.508Z,64.04
2019-05-10T22:15:36.676Z,64.25
2019-05-10T22:17:38.922Z,64.18
2019-05-10T22:19:42.180Z,64.34
2019-05-10T22:21:44.198Z,64.38
2019-05-10T22:23:46.442Z,64.45
2019-05-10T22:25:48.432Z,64.46
2019-05-10T22:27:50.476Z,64.20
2019-05-10T22:29:52.618Z,64.27
2019-05-10T22:31:54.668Z,64.49
2019-05-10T22:33:57.309Z,64.84
2019-05-10T22:35:59.631Z,64.36
2019-05-10T22:38:01.477Z,64.86
2019-05-10T22:40:03.935Z,65.25
2019-05-10T22:42:05.881Z,65.12
2019-05-10T22:44:10.892Z,65.19
2019-05-10T22:46:12.904Z,64.91
2019-05-10T22:48:14.908Z,64.72
2019-05-10T22:50:17.042Z,64.79
2019-05-10T22:52:19.047Z,64.94
2019-05-10T22:54:21.303Z,64.45
2019-05-10T22:56:24.433Z,64.39
2019-05-10T22:58:26.482Z,64.68
2019-05-10T23:00:28.819Z,65.51
2019-05-10T23:02:30.930Z,65.67
2019-05-10T23:04:32.956Z,66.13
2019-05-10T23:06:35.112Z,66.53
2019-05-10T23:08:37.554Z,65.69
2019-05-10T23:10:39.183Z,65.81
2019-05-10T23:12:41.397Z,66.23
2019-05-10T23:14:43.546Z,66.25
2019-05-10T23:16:45.578Z,66.09
2019-05-10T23:18:47.982Z,66.74
2019-05-10T23:20:49.947Z,66.76
2019-05-10T23:22:52.043Z,66.86
2019-05-10T23:24:54.286Z,66.60
2019-05-10T23:26:56.418Z,66.88
2019-05-10T23:28:58.445Z,66.88
2019-05-10T23:31:00.694Z,67.64
2019-05-10T23:33:02.835Z,67.16
2019-05-10T23:35:06.672Z,67.29
2019-05-10T23:37:08.912Z,67.57
2019-05-10T23:39:11.008Z,67.97
2019-05-10T23:41:13.123Z,67.89
2019-05-10T23:43:15.512Z,68.07
2019-05-10T23:45:18.844Z,68.17
2019-05-10T23:47:20.853Z,67.86
2019-05-10T23:49:23.326Z,67.76
2019-05-10T23:51:25.009Z,68.52
2019-05-10T23:53:27.042Z,68.24
2019-05-10T23:56:19.574Z,68.41
2019-05-10T23:58:21.592Z,69.20
